sensor_id;sensor_type;location;lat;lon;timestamp;temperature;humidity
2409;DHT22;8463;48.094;7.970;2023-02-21T00:01:56;6.00;27.00
2409;DHT22;8463;48.094;7.970;2023-02-21T00:04:41;6.00;27.30
2409;DHT22;8463;48.094;7.970;2023-02-21T00:07:25;6.00;27.40
2409;DHT22;8463;48.094;7.970;2023-02-21T00:10:13;5.90;27.20
2409;DHT22;8463;48.094;7.970;2023-02-21T00:12:59;5.90;27.50
2409;DHT22;8463;48.094;7.970;2023-02-21T00:15:42;5.80;27.60
2409;DHT22;8463;48.094;7.970;2023-02-21T00:18:27;5.70;27.80
2409;DHT22;8463;48.094;7.970;2023-02-21T00:21:10;5.60;29.90
2409;DHT22;8463;48.094;7.970;2023-02-21T00:23:54;5.50;30.00
2409;DHT22;8463;48.094;7.970;2023-02-21T00:26:38;5.50;30.10
2409;DHT22;8463;48.094;7.970;2023-02-21T00:29:22;5.50;29.80
2409;DHT22;8463;48.094;7.970;2023-02-21T00:32:06;5.50;29.00
2409;DHT22;8463;48.094;7.970;2023-02-21T00:34:57;5.60;28.90
2409;DHT22;8463;48.094;7.970;2023-02-21T00:37:41;5.60;29.00
2409;DHT22;8463;48.094;7.970;2023-02-21T00:40:25;5.60;28.40
2409;DHT22;8463;48.094;7.970;2023-02-21T00:43:09;5.60;28.10
2409;DHT22;8463;48.094;7.970;2023-02-21T00:45:54;5.70;27.60
2409;DHT22;8463;48.094;7.970;2023-02-21T00:48:38;5.70;27.50
2409;DHT22;8463;48.094;7.970;2023-02-21T00:51:22;5.70;27.50
2409;DHT22;8463;48.094;7.970;2023-02-21T00:54:06;5.70;27.00
2409;DHT22;8463;48.094;7.970;2023-02-21T00:56:52;5.70;27.20
2409;DHT22;8463;48.094;7.970;2023-02-21T00:59:36;5.60;27.50
2409;DHT22;8463;48.094;7.970;2023-02-21T01:02:20;5.50;27.50
2409;DHT22;8463;48.094;7.970;2023-02-21T01:05:05;5.50;27.60
2409;DHT22;8463;48.094;7.970;2023-02-21T01:07:49;5.50;27.60
2409;DHT22;8463;48.094;7.970;2023-02-21T01:10:33;5.40;27.50
2409;DHT22;8463;48.094;7.970;2023-02-21T01:13:19;5.40;27.60
2409;DHT22;8463;48.094;7.970;2023-02-21T01:16:06;5.30;28.50
2409;DHT22;8463;48.094;7.970;2023-02-21T01:18:50;5.30;28.90
2409;DHT22;8463;48.094;7.970;2023-02-21T01:21:35;5.20;28.50
2409;DHT22;8463;48.094;7.970;2023-02-21T01:24:19;5.20;28.90
2409;DHT22;8463;48.094;7.970;2023-02-21T01:27:03;5.20;29.20
2409;DHT22;8463;48.094;7.970;2023-02-21T01:29:47;5.10;29.00
2409;DHT22;8463;48.094;7.970;2023-02-21T01:32:31;5.10;28.20
2409;DHT22;8463;48.094;7.970;2023-02-21T01:35:15;5.10;28.50
2409;DHT22;8463;48.094;7.970;2023-02-21T01:37:59;5.00;28.80
2409;DHT22;8463;48.094;7.970;2023-02-21T01:40:43;5.00;28.70
2409;DHT22;8463;48.094;7.970;2023-02-21T01:43:28;5.10;28.50
2409;DHT22;8463;48.094;7.970;2023-02-21T01:46:21;5.00;27.90
2409;DHT22;8463;48.094;7.970;2023-02-21T01:49:12;5.00;28.70
2409;DHT22;8463;48.094;7.970;2023-02-21T01:52:03;5.00;29.20
2409;DHT22;8463;48.094;7.970;2023-02-21T01:54:51;4.90;29.40
2409;DHT22;8463;48.094;7.970;2023-02-21T01:57:38;4.90;29.20
2409;DHT22;8463;48.094;7.970;2023-02-21T02:00:23;4.80;29.60
2409;DHT22;8463;48.094;7.970;2023-02-21T02:03:11;4.90;30.00
2409;DHT22;8463;48.094;7.970;2023-02-21T02:05:59;4.80;30.00
2409;DHT22;8463;48.094;7.970;2023-02-21T02:08:44;4.80;30.00
2409;DHT22;8463;48.094;7.970;2023-02-21T02:35:11;4.50;31.60
2409;DHT22;8463;48.094;7.970;2023-02-21T02:43:37;4.40;32.50
2409;DHT22;8463;48.094;7.970;2023-02-21T02:46:27;4.40;32.60
2409;DHT22;8463;48.094;7.970;2023-02-21T02:49:09;4.40;32.10
2409;DHT22;8463;48.094;7.970;2023-02-21T02:51:37;4.40;32.60
2409;DHT22;8463;48.094;7.970;2023-02-21T02:54:03;4.40;32.90
2409;DHT22;8463;48.094;7.970;2023-02-21T02:56:29;4.40;32.50
2409;DHT22;8463;48.094;7.970;2023-02-21T02:59:22;4.40;32.30
2409;DHT22;8463;48.094;7.970;2023-02-21T03:02:04;4.40;31.80
2409;DHT22;8463;48.094;7.970;2023-02-21T03:10:51;4.40;31.50
2409;DHT22;8463;48.094;7.970;2023-02-21T03:13:21;4.40;32.20
2409;DHT22;8463;48.094;7.970;2023-02-21T03:16:03;4.40;32.00
2409;DHT22;8463;48.094;7.970;2023-02-21T03:21:25;4.20;33.10
2409;DHT22;8463;48.094;7.970;2023-02-21T03:23:57;4.20;33.20
2409;DHT22;8463;48.094;7.970;2023-02-21T03:26:26;4.20;32.70
2409;DHT22;8463;48.094;7.970;2023-02-21T03:28:53;4.20;32.90
2409;DHT22;8463;48.094;7.970;2023-02-21T03:31:22;4.20;33.40
2409;DHT22;8463;48.094;7.970;2023-02-21T03:33:49;4.20;33.60
2409;DHT22;8463;48.094;7.970;2023-02-21T03:36:17;4.20;33.20
2409;DHT22;8463;48.094;7.970;2023-02-21T03:38:42;4.30;33.40
2409;DHT22;8463;48.094;7.970;2023-02-21T03:41:09;4.30;33.30
2409;DHT22;8463;48.094;7.970;2023-02-21T03:43:36;4.30;33.60
2409;DHT22;8463;48.094;7.970;2023-02-21T03:46:01;4.20;33.50
2409;DHT22;8463;48.094;7.970;2023-02-21T03:48:27;4.20;33.80
2409;DHT22;8463;48.094;7.970;2023-02-21T03:50:53;4.20;33.20
2409;DHT22;8463;48.094;7.970;2023-02-21T03:53:18;4.20;33.40
2409;DHT22;8463;48.094;7.970;2023-02-21T03:55:44;4.10;34.00
2409;DHT22;8463;48.094;7.970;2023-02-21T03:58:10;4.00;34.70
2409;DHT22;8463;48.094;7.970;2023-02-21T04:00:38;3.90;36.00
2409;DHT22;8463;48.094;7.970;2023-02-21T04:03:06;3.90;36.40
2409;DHT22;8463;48.094;7.970;2023-02-21T04:05:31;3.90;37.30
2409;DHT22;8463;48.094;7.970;2023-02-21T04:07:57;3.90;36.40
2409;DHT22;8463;48.094;7.970;2023-02-21T04:10:23;3.80;36.60
2409;DHT22;8463;48.094;7.970;2023-02-21T04:12:48;3.90;36.80
2409;DHT22;8463;48.094;7.970;2023-02-21T04:15:14;3.90;36.60
2409;DHT22;8463;48.094;7.970;2023-02-21T04:17:39;3.90;37.00
2409;DHT22;8463;48.094;7.970;2023-02-21T04:20:05;4.00;37.00
2409;DHT22;8463;48.094;7.970;2023-02-21T04:22:31;4.00;36.90
2409;DHT22;8463;48.094;7.970;2023-02-21T04:24:57;4.00;36.70
2409;DHT22;8463;48.094;7.970;2023-02-21T04:27:22;4.20;36.10
2409;DHT22;8463;48.094;7.970;2023-02-21T04:29:48;4.10;35.70
2409;DHT22;8463;48.094;7.970;2023-02-21T04:32:14;4.20;35.50
2409;DHT22;8463;48.094;7.970;2023-02-21T04:34:42;4.20;35.30
2409;DHT22;8463;48.094;7.970;2023-02-21T04:37:10;4.20;34.30
2409;DHT22;8463;48.094;7.970;2023-02-21T04:39:35;4.20;34.80
2409;DHT22;8463;48.094;7.970;2023-02-21T04:42:01;4.10;35.10
2409;DHT22;8463;48.094;7.970;2023-02-21T04:44:27;4.10;35.10
2409;DHT22;8463;48.094;7.970;2023-02-21T04:46:52;4.10;35.80
2409;DHT22;8463;48.094;7.970;2023-02-21T04:49:18;4.10;35.40
2409;DHT22;8463;48.094;7.970;2023-02-21T04:51:43;4.00;35.90
2409;DHT22;8463;48.094;7.970;2023-02-21T04:54:09;4.00;35.90
2409;DHT22;8463;48.094;7.970;2023-02-21T04:56:35;4.00;35.50
2409;DHT22;8463;48.094;7.970;2023-02-21T04:59:02;4.00;35.80
2409;DHT22;8463;48.094;7.970;2023-02-21T05:01:29;4.00;35.50
2409;DHT22;8463;48.094;7.970;2023-02-21T05:03:56;4.00;35.20
2409;DHT22;8463;48.094;7.970;2023-02-21T05:06:24;4.00;35.40
2409;DHT22;8463;48.094;7.970;2023-02-21T05:08:50;3.90;35.30
2409;DHT22;8463;48.094;7.970;2023-02-21T05:11:17;3.90;36.40
2409;DHT22;8463;48.094;7.970;2023-02-21T05:13:49;3.90;35.80
2409;DHT22;8463;48.094;7.970;2023-02-21T05:16:16;3.90;35.40
2409;DHT22;8463;48.094;7.970;2023-02-21T05:18:43;3.90;35.20
2409;DHT22;8463;48.094;7.970;2023-02-21T05:21:09;3.90;34.70
2409;DHT22;8463;48.094;7.970;2023-02-21T05:23:35;3.90;34.60
2409;DHT22;8463;48.094;7.970;2023-02-21T05:26:08;3.90;34.50
2409;DHT22;8463;48.094;7.970;2023-02-21T05:28:34;3.80;34.40
2409;DHT22;8463;48.094;7.970;2023-02-21T05:31:00;3.80;34.90
2409;DHT22;8463;48.094;7.970;2023-02-21T05:33:26;3.80;34.80
2409;DHT22;8463;48.094;7.970;2023-02-21T05:35:51;3.90;35.00
2409;DHT22;8463;48.094;7.970;2023-02-21T05:38:19;3.90;34.70
2409;DHT22;8463;48.094;7.970;2023-02-21T05:40:46;3.80;33.80
2409;DHT22;8463;48.094;7.970;2023-02-21T05:43:12;3.80;35.30
2409;DHT22;8463;48.094;7.970;2023-02-21T05:45:40;3.80;35.50
2409;DHT22;8463;48.094;7.970;2023-02-21T05:48:06;3.80;35.70
2409;DHT22;8463;48.094;7.970;2023-02-21T05:50:33;3.80;36.30
2409;DHT22;8463;48.094;7.970;2023-02-21T05:53:00;3.70;36.70
2409;DHT22;8463;48.094;7.970;2023-02-21T05:55:26;3.70;37.30
2409;DHT22;8463;48.094;7.970;2023-02-21T05:57:52;3.70;37.40
2409;DHT22;8463;48.094;7.970;2023-02-21T06:00:22;3.60;38.00
2409;DHT22;8463;48.094;7.970;2023-02-21T06:02:50;3.50;37.90
2409;DHT22;8463;48.094;7.970;2023-02-21T06:05:17;3.50;38.00
2409;DHT22;8463;48.094;7.970;2023-02-21T06:07:43;3.40;37.90
2409;DHT22;8463;48.094;7.970;2023-02-21T06:10:09;3.40;38.70
2409;DHT22;8463;48.094;7.970;2023-02-21T06:12:34;3.40;39.10
2409;DHT22;8463;48.094;7.970;2023-02-21T06:15:01;3.40;39.30
2409;DHT22;8463;48.094;7.970;2023-02-21T06:17:26;3.40;38.90
2409;DHT22;8463;48.094;7.970;2023-02-21T06:19:55;3.50;38.20
2409;DHT22;8463;48.094;7.970;2023-02-21T06:22:21;3.40;37.90
2409;DHT22;8463;48.094;7.970;2023-02-21T06:24:47;3.40;38.70
2409;DHT22;8463;48.094;7.970;2023-02-21T06:27:13;3.40;40.90
2409;DHT22;8463;48.094;7.970;2023-02-21T06:29:40;3.30;40.20
2409;DHT22;8463;48.094;7.970;2023-02-21T06:32:05;3.30;40.30
2409;DHT22;8463;48.094;7.970;2023-02-21T06:34:31;3.30;41.10
2409;DHT22;8463;48.094;7.970;2023-02-21T06:36:57;3.30;40.50
2409;DHT22;8463;48.094;7.970;2023-02-21T06:39:23;3.40;41.00
2409;DHT22;8463;48.094;7.970;2023-02-21T06:41:49;3.40;40.00
2409;DHT22;8463;48.094;7.970;2023-02-21T06:44:15;3.40;39.60
2409;DHT22;8463;48.094;7.970;2023-02-21T06:46:42;3.40;40.40
2409;DHT22;8463;48.094;7.970;2023-02-21T06:49:08;3.40;41.30
2409;DHT22;8463;48.094;7.970;2023-02-21T06:51:38;3.40;41.80
2409;DHT22;8463;48.094;7.970;2023-02-21T06:54:04;3.30;41.70
2409;DHT22;8463;48.094;7.970;2023-02-21T06:56:32;3.40;41.90
2409;DHT22;8463;48.094;7.970;2023-02-21T06:58:58;3.40;41.70
2409;DHT22;8463;48.094;7.970;2023-02-21T07:01:27;3.40;41.60
2409;DHT22;8463;48.094;7.970;2023-02-21T07:03:54;3.40;41.70
2409;DHT22;8463;48.094;7.970;2023-02-21T07:06:20;3.50;40.80
2409;DHT22;8463;48.094;7.970;2023-02-21T07:08:46;3.50;40.30
2409;DHT22;8463;48.094;7.970;2023-02-21T07:11:12;3.50;41.20
2409;DHT22;8463;48.094;7.970;2023-02-21T07:13:38;3.40;41.60
2409;DHT22;8463;48.094;7.970;2023-02-21T07:16:04;3.40;41.50
2409;DHT22;8463;48.094;7.970;2023-02-21T07:18:30;3.40;41.80
2409;DHT22;8463;48.094;7.970;2023-02-21T07:20:56;3.50;41.80
2409;DHT22;8463;48.094;7.970;2023-02-21T07:23:25;3.50;41.80
2409;DHT22;8463;48.094;7.970;2023-02-21T07:25:51;3.50;41.60
2409;DHT22;8463;48.094;7.970;2023-02-21T07:28:17;3.50;42.90
2409;DHT22;8463;48.094;7.970;2023-02-21T07:30:43;3.50;42.50
2409;DHT22;8463;48.094;7.970;2023-02-21T07:33:08;3.50;42.70
2409;DHT22;8463;48.094;7.970;2023-02-21T07:35:34;3.40;42.80
2409;DHT22;8463;48.094;7.970;2023-02-21T07:37:59;3.40;42.40
2409;DHT22;8463;48.094;7.970;2023-02-21T07:40:26;3.40;43.80
2409;DHT22;8463;48.094;7.970;2023-02-21T07:42:51;3.40;44.30
2409;DHT22;8463;48.094;7.970;2023-02-21T07:45:17;3.50;43.60
2409;DHT22;8463;48.094;7.970;2023-02-21T07:47:44;3.50;43.80
2409;DHT22;8463;48.094;7.970;2023-02-21T07:50:11;3.60;43.20
2409;DHT22;8463;48.094;7.970;2023-02-21T07:52:37;3.60;42.90
2409;DHT22;8463;48.094;7.970;2023-02-21T07:55:03;3.70;42.40
2409;DHT22;8463;48.094;7.970;2023-02-21T07:57:28;3.70;41.60
2409;DHT22;8463;48.094;7.970;2023-02-21T07:59:54;3.90;44.10
2409;DHT22;8463;48.094;7.970;2023-02-21T08:02:20;4.20;45.30
2409;DHT22;8463;48.094;7.970;2023-02-21T08:04:49;4.60;47.90
2409;DHT22;8463;48.094;7.970;2023-02-21T08:07:15;5.30;47.80
2409;DHT22;8463;48.094;7.970;2023-02-21T08:09:41;5.70;38.00
2409;DHT22;8463;48.094;7.970;2023-02-21T08:12:07;6.00;35.70
2409;DHT22;8463;48.094;7.970;2023-02-21T08:14:32;6.30;33.00
2409;DHT22;8463;48.094;7.970;2023-02-21T08:16:58;6.30;29.50
2409;DHT22;8463;48.094;7.970;2023-02-21T08:19:24;6.10;31.20
2409;DHT22;8463;48.094;7.970;2023-02-21T08:21:49;6.50;33.00
2409;DHT22;8463;48.094;7.970;2023-02-21T08:24:16;6.90;30.90
2409;DHT22;8463;48.094;7.970;2023-02-21T08:26:42;7.10;29.60
2409;DHT22;8463;48.094;7.970;2023-02-21T08:29:10;7.20;27.90
2409;DHT22;8463;48.094;7.970;2023-02-21T08:31:37;7.30;27.50
2409;DHT22;8463;48.094;7.970;2023-02-21T08:34:04;7.40;27.10
2409;DHT22;8463;48.094;7.970;2023-02-21T08:36:35;7.40;26.40
2409;DHT22;8463;48.094;7.970;2023-02-21T08:39:02;7.40;27.00
2409;DHT22;8463;48.094;7.970;2023-02-21T08:41:38;7.50;27.10
2409;DHT22;8463;48.094;7.970;2023-02-21T08:44:05;7.70;26.90
2409;DHT22;8463;48.094;7.970;2023-02-21T08:46:31;7.90;25.70
2409;DHT22;8463;48.094;7.970;2023-02-21T08:48:57;8.10;25.20
2409;DHT22;8463;48.094;7.970;2023-02-21T08:51:27;8.10;25.00
2409;DHT22;8463;48.094;7.970;2023-02-21T08:53:53;8.30;25.20
2409;DHT22;8463;48.094;7.970;2023-02-21T08:56:20;8.50;24.20
2409;DHT22;8463;48.094;7.970;2023-02-21T08:58:46;8.70;23.40
2409;DHT22;8463;48.094;7.970;2023-02-21T09:01:11;8.80;22.30
2409;DHT22;8463;48.094;7.970;2023-02-21T09:03:37;8.90;21.80
2409;DHT22;8463;48.094;7.970;2023-02-21T09:06:03;9.00;22.00
2409;DHT22;8463;48.094;7.970;2023-02-21T09:08:29;9.10;21.80
2409;DHT22;8463;48.094;7.970;2023-02-21T09:10:56;9.30;20.90
2409;DHT22;8463;48.094;7.970;2023-02-21T09:13:27;9.50;21.30
2409;DHT22;8463;48.094;7.970;2023-02-21T09:15:55;9.80;20.20
2409;DHT22;8463;48.094;7.970;2023-02-21T09:18:22;10.00;17.40
2409;DHT22;8463;48.094;7.970;2023-02-21T09:20:48;10.00;14.60
2409;DHT22;8463;48.094;7.970;2023-02-21T09:23:23;10.20;15.50
2409;DHT22;8463;48.094;7.970;2023-02-21T09:25:49;10.40;16.70
2409;DHT22;8463;48.094;7.970;2023-02-21T09:28:16;10.60;16.20
2409;DHT22;8463;48.094;7.970;2023-02-21T09:30:42;10.90;15.90
2409;DHT22;8463;48.094;7.970;2023-02-21T09:33:08;11.10;13.60
2409;DHT22;8463;48.094;7.970;2023-02-21T09:35:34;11.30;11.40
2409;DHT22;8463;48.094;7.970;2023-02-21T09:38:01;11.50;7.20
2409;DHT22;8463;48.094;7.970;2023-02-21T09:42:59;11.60;6.10
2409;DHT22;8463;48.094;7.970;2023-02-21T09:45:30;11.80;6.40
2409;DHT22;8463;48.094;7.970;2023-02-21T09:47:58;12.00;5.50
2409;DHT22;8463;48.094;7.970;2023-02-21T09:50:28;12.30;4.10
2409;DHT22;8463;48.094;7.970;2023-02-21T09:52:58;12.50;1.00
2409;DHT22;8463;48.094;7.970;2023-02-21T09:55:35;12.30;1.00
2409;DHT22;8463;48.094;7.970;2023-02-21T09:58:04;12.40;1.00
2409;DHT22;8463;48.094;7.970;2023-02-21T10:00:36;12.50;1.00
2409;DHT22;8463;48.094;7.970;2023-02-21T10:05:47;12.20;1.00
2409;DHT22;8463;48.094;7.970;2023-02-21T10:17:12;12.00;1.00
2409;DHT22;8463;48.094;7.970;2023-02-21T10:19:44;12.20;1.00
2409;DHT22;8463;48.094;7.970;2023-02-21T10:22:27;12.60;1.00
2409;DHT22;8463;48.094;7.970;2023-02-21T10:24:54;12.60;1.00
2409;DHT22;8463;48.094;7.970;2023-02-21T10:27:25;12.80;1.00
2409;DHT22;8463;48.094;7.970;2023-02-21T10:30:05;12.90;1.00
2409;DHT22;8463;48.094;7.970;2023-02-21T10:32:36;13.00;1.00
2409;DHT22;8463;48.094;7.970;2023-02-21T10:35:02;13.30;1.00
2409;DHT22;8463;48.094;7.970;2023-02-21T10:43:08;13.50;1.00
2409;DHT22;8463;48.094;7.970;2023-02-21T10:48:36;13.70;1.00
2409;DHT22;8463;48.094;7.970;2023-02-21T10:53:42;13.80;1.00
2409;DHT22;8463;48.094;7.970;2023-02-21T10:58:48;13.80;1.00
2409;DHT22;8463;48.094;7.970;2023-02-21T11:04:30;14.00;1.00
2409;DHT22;8463;48.094;7.970;2023-02-21T11:07:06;14.10;1.00
2409;DHT22;8463;48.094;7.970;2023-02-21T11:09:37;14.10;1.00
2409;DHT22;8463;48.094;7.970;2023-02-21T11:17:26;14.20;1.00
2409;DHT22;8463;48.094;7.970;2023-02-21T11:19:55;14.30;1.00
2409;DHT22;8463;48.094;7.970;2023-02-21T11:25:03;14.30;1.00
2409;DHT22;8463;48.094;7.970;2023-02-21T11:27:32;14.00;1.00
2409;DHT22;8463;48.094;7.970;2023-02-21T11:30:00;14.20;1.00
2409;DHT22;8463;48.094;7.970;2023-02-21T11:35:22;14.50;1.00
2409;DHT22;8463;48.094;7.970;2023-02-21T11:38:03;14.80;1.00
2409;DHT22;8463;48.094;7.970;2023-02-21T11:40:50;15.10;1.00
2409;DHT22;8463;48.094;7.970;2023-02-21T11:54:04;15.30;1.00
2409;DHT22;8463;48.094;7.970;2023-02-21T12:10:59;15.70;1.00
2409;DHT22;8463;48.094;7.970;2023-02-21T12:16:33;16.00;1.00
2409;DHT22;8463;48.094;7.970;2023-02-21T12:19:12;16.20;1.00
2409;DHT22;8463;48.094;7.970;2023-02-21T12:24:52;15.90;1.00
2409;DHT22;8463;48.094;7.970;2023-02-21T12:32:47;17.10;1.00
2409;DHT22;8463;48.094;7.970;2023-02-21T12:43:49;17.10;1.00
2409;DHT22;8463;48.094;7.970;2023-02-21T12:46:27;17.20;1.00
2409;DHT22;8463;48.094;7.970;2023-02-21T12:48:58;17.20;1.00
2409;DHT22;8463;48.094;7.970;2023-02-21T12:51:29;17.50;1.00
2409;DHT22;8463;48.094;7.970;2023-02-21T12:54:13;17.40;1.00
2409;DHT22;8463;48.094;7.970;2023-02-21T12:56:56;17.30;1.00
2409;DHT22;8463;48.094;7.970;2023-02-21T12:59:30;17.30;1.00
2409;DHT22;8463;48.094;7.970;2023-02-21T13:05:02;17.50;1.00
2409;DHT22;8463;48.094;7.970;2023-02-21T13:07:36;17.40;1.00
2409;DHT22;8463;48.094;7.970;2023-02-21T13:10:16;17.70;1.00
2409;DHT22;8463;48.094;7.970;2023-02-21T13:12:50;18.10;1.00
2409;DHT22;8463;48.094;7.970;2023-02-21T13:15:25;18.40;1.00
2409;DHT22;8463;48.094;7.970;2023-02-21T13:23:48;17.60;1.00
2409;DHT22;8463;48.094;7.970;2023-02-21T13:29:33;18.00;1.00
2409;DHT22;8463;48.094;7.970;2023-02-21T13:32:11;18.20;1.00
2409;DHT22;8463;48.094;7.970;2023-02-21T13:34:47;17.90;1.00
2409;DHT22;8463;48.094;7.970;2023-02-21T13:37:24;17.70;1.00
2409;DHT22;8463;48.094;7.970;2023-02-21T13:39:57;18.10;1.00
2409;DHT22;8463;48.094;7.970;2023-02-21T13:42:28;18.10;1.00
2409;DHT22;8463;48.094;7.970;2023-02-21T13:45:05;18.50;1.00
2409;DHT22;8463;48.094;7.970;2023-02-21T13:53:23;19.30;1.00
2409;DHT22;8463;48.094;7.970;2023-02-21T13:56:12;19.10;1.00
2409;DHT22;8463;48.094;7.970;2023-02-21T13:58:40;19.40;1.00
2409;DHT22;8463;48.094;7.970;2023-02-21T14:01:42;19.40;1.00
2409;DHT22;8463;48.094;7.970;2023-02-21T14:07:10;19.00;1.00
2409;DHT22;8463;48.094;7.970;2023-02-21T14:09:39;18.90;1.00
2409;DHT22;8463;48.094;7.970;2023-02-21T14:12:06;19.20;1.00
2409;DHT22;8463;48.094;7.970;2023-02-21T14:14:34;19.30;1.00
2409;DHT22;8463;48.094;7.970;2023-02-21T14:17:09;18.60;1.00
2409;DHT22;8463;48.094;7.970;2023-02-21T14:24:43;18.90;1.00
2409;DHT22;8463;48.094;7.970;2023-02-21T14:32:26;18.50;1.00
2409;DHT22;8463;48.094;7.970;2023-02-21T14:34:55;18.40;1.00
2409;DHT22;8463;48.094;7.970;2023-02-21T14:46:16;18.30;1.00
2409;DHT22;8463;48.094;7.970;2023-02-21T14:48:56;18.00;1.00
2409;DHT22;8463;48.094;7.970;2023-02-21T15:10:47;17.40;1.00
2409;DHT22;8463;48.094;7.970;2023-02-21T15:13:31;17.00;1.00
2409;DHT22;8463;48.094;7.970;2023-02-21T15:16:05;16.80;1.00
2409;DHT22;8463;48.094;7.970;2023-02-21T15:18:36;16.70;1.00
2409;DHT22;8463;48.094;7.970;2023-02-21T15:23:27;16.50;1.00
2409;DHT22;8463;48.094;7.970;2023-02-21T15:26:08;16.40;1.00
2409;DHT22;8463;48.094;7.970;2023-02-21T15:28:39;16.00;1.00
2409;DHT22;8463;48.094;7.970;2023-02-21T15:31:08;15.90;1.00
2409;DHT22;8463;48.094;7.970;2023-02-21T15:33:36;15.80;1.00
2409;DHT22;8463;48.094;7.970;2023-02-21T15:36:15;15.80;1.00
2409;DHT22;8463;48.094;7.970;2023-02-21T15:39:14;15.50;1.00
2409;DHT22;8463;48.094;7.970;2023-02-21T15:41:45;15.50;1.00
2409;DHT22;8463;48.094;7.970;2023-02-21T15:44:13;15.10;1.00
2409;DHT22;8463;48.094;7.970;2023-02-21T15:46:51;14.70;1.00
2409;DHT22;8463;48.094;7.970;2023-02-21T15:49:34;14.40;1.00
2409;DHT22;8463;48.094;7.970;2023-02-21T15:52:03;14.30;1.00
2409;DHT22;8463;48.094;7.970;2023-02-21T15:54:36;14.40;1.00
2409;DHT22;8463;48.094;7.970;2023-02-21T15:57:05;14.50;1.00
2409;DHT22;8463;48.094;7.970;2023-02-21T15:59:39;14.50;1.00
2409;DHT22;8463;48.094;7.970;2023-02-21T16:02:21;14.30;1.00
2409;DHT22;8463;48.094;7.970;2023-02-21T16:04:51;14.30;1.00
2409;DHT22;8463;48.094;7.970;2023-02-21T16:07:34;14.40;1.00
2409;DHT22;8463;48.094;7.970;2023-02-21T16:10:10;14.20;1.00
2409;DHT22;8463;48.094;7.970;2023-02-21T16:12:43;13.80;1.00
2409;DHT22;8463;48.094;7.970;2023-02-21T16:15:41;13.50;1.00
2409;DHT22;8463;48.094;7.970;2023-02-21T16:18:16;13.40;1.00
2409;DHT22;8463;48.094;7.970;2023-02-21T16:20:43;13.50;1.00
2409;DHT22;8463;48.094;7.970;2023-02-21T16:23:35;13.50;1.00
2409;DHT22;8463;48.094;7.970;2023-02-21T16:28:36;13.70;1.00
2409;DHT22;8463;48.094;7.970;2023-02-21T16:31:04;13.70;1.00
2409;DHT22;8463;48.094;7.970;2023-02-21T16:33:31;13.80;1.00
2409;DHT22;8463;48.094;7.970;2023-02-21T16:35:58;13.80;1.00
2409;DHT22;8463;48.094;7.970;2023-02-21T16:38:25;13.80;1.00
2409;DHT22;8463;48.094;7.970;2023-02-21T16:40:51;13.90;1.00
2409;DHT22;8463;48.094;7.970;2023-02-21T16:43:27;13.80;1.00
2409;DHT22;8463;48.094;7.970;2023-02-21T16:45:56;13.80;1.00
2409;DHT22;8463;48.094;7.970;2023-02-21T16:48:27;13.70;1.00
2409;DHT22;8463;48.094;7.970;2023-02-21T16:51:02;13.70;1.00
2409;DHT22;8463;48.094;7.970;2023-02-21T16:53:29;13.40;1.00
2409;DHT22;8463;48.094;7.970;2023-02-21T16:55:55;13.20;1.00
2409;DHT22;8463;48.094;7.970;2023-02-21T16:58:28;13.20;1.00
2409;DHT22;8463;48.094;7.970;2023-02-21T17:00:57;12.70;1.00
2409;DHT22;8463;48.094;7.970;2023-02-21T17:03:24;12.50;1.00
2409;DHT22;8463;48.094;7.970;2023-02-21T17:05:50;12.50;1.00
2409;DHT22;8463;48.094;7.970;2023-02-21T17:08:17;12.60;1.00
2409;DHT22;8463;48.094;7.970;2023-02-21T17:10:43;12.50;1.00
2409;DHT22;8463;48.094;7.970;2023-02-21T17:13:08;12.60;1.00
2409;DHT22;8463;48.094;7.970;2023-02-21T17:15:34;12.60;1.00
2409;DHT22;8463;48.094;7.970;2023-02-21T17:18:00;12.50;1.00
2409;DHT22;8463;48.094;7.970;2023-02-21T17:20:26;12.40;1.00
2409;DHT22;8463;48.094;7.970;2023-02-21T17:22:53;12.30;1.00
2409;DHT22;8463;48.094;7.970;2023-02-21T17:25:22;12.20;1.00
2409;DHT22;8463;48.094;7.970;2023-02-21T17:27:49;12.10;1.00
2409;DHT22;8463;48.094;7.970;2023-02-21T17:30:18;12.00;1.00
2409;DHT22;8463;48.094;7.970;2023-02-21T17:32:44;11.90;1.00
2409;DHT22;8463;48.094;7.970;2023-02-21T17:35:12;11.80;1.00
2409;DHT22;8463;48.094;7.970;2023-02-21T17:37:43;11.70;1.00
2409;DHT22;8463;48.094;7.970;2023-02-21T17:40:10;11.60;1.00
2409;DHT22;8463;48.094;7.970;2023-02-21T17:42:36;11.50;1.00
2409;DHT22;8463;48.094;7.970;2023-02-21T17:45:03;11.50;1.00
2409;DHT22;8463;48.094;7.970;2023-02-21T17:47:30;11.50;1.00
2409;DHT22;8463;48.094;7.970;2023-02-21T17:49:55;11.40;1.20
2409;DHT22;8463;48.094;7.970;2023-02-21T17:52:24;11.40;2.10
2409;DHT22;8463;48.094;7.970;2023-02-21T17:54:50;11.40;2.50
2409;DHT22;8463;48.094;7.970;2023-02-21T17:57:16;11.30;3.00
2409;DHT22;8463;48.094;7.970;2023-02-21T17:59:42;11.30;3.80
2409;DHT22;8463;48.094;7.970;2023-02-21T18:02:08;11.30;5.40
2409;DHT22;8463;48.094;7.970;2023-02-21T18:04:34;11.10;6.50
2409;DHT22;8463;48.094;7.970;2023-02-21T18:07:00;11.10;7.00
2409;DHT22;8463;48.094;7.970;2023-02-21T18:09:25;11.00;7.70
2409;DHT22;8463;48.094;7.970;2023-02-21T18:11:54;10.80;8.20
2409;DHT22;8463;48.094;7.970;2023-02-21T18:14:21;10.80;8.60
2409;DHT22;8463;48.094;7.970;2023-02-21T18:16:47;10.80;9.10
2409;DHT22;8463;48.094;7.970;2023-02-21T18:19:13;10.80;9.10
2409;DHT22;8463;48.094;7.970;2023-02-21T18:21:39;10.70;9.20
2409;DHT22;8463;48.094;7.970;2023-02-21T18:24:10;10.60;10.00
2409;DHT22;8463;48.094;7.970;2023-02-21T18:26:37;10.60;10.80
2409;DHT22;8463;48.094;7.970;2023-02-21T18:29:04;10.50;10.90
2409;DHT22;8463;48.094;7.970;2023-02-21T18:31:31;10.40;11.20
2409;DHT22;8463;48.094;7.970;2023-02-21T18:33:57;10.40;11.40
2409;DHT22;8463;48.094;7.970;2023-02-21T18:36:22;10.40;12.40
2409;DHT22;8463;48.094;7.970;2023-02-21T18:38:48;10.20;12.60
2409;DHT22;8463;48.094;7.970;2023-02-21T18:41:18;10.20;13.20
2409;DHT22;8463;48.094;7.970;2023-02-21T18:43:48;10.10;13.30
2409;DHT22;8463;48.094;7.970;2023-02-21T18:46:16;10.00;13.80
2409;DHT22;8463;48.094;7.970;2023-02-21T18:48:44;10.00;14.30
2409;DHT22;8463;48.094;7.970;2023-02-21T18:51:12;9.90;15.80
2409;DHT22;8463;48.094;7.970;2023-02-21T18:53:38;9.80;16.40
2409;DHT22;8463;48.094;7.970;2023-02-21T18:56:13;9.70;15.80
2409;DHT22;8463;48.094;7.970;2023-02-21T18:58:39;9.70;16.00
2409;DHT22;8463;48.094;7.970;2023-02-21T19:01:05;9.70;16.60
2409;DHT22;8463;48.094;7.970;2023-02-21T19:03:32;9.60;17.00
2409;DHT22;8463;48.094;7.970;2023-02-21T19:05:59;9.60;16.60
2409;DHT22;8463;48.094;7.970;2023-02-21T19:08:25;9.50;16.90
2409;DHT22;8463;48.094;7.970;2023-02-21T19:10:51;9.50;17.00
2409;DHT22;8463;48.094;7.970;2023-02-21T19:13:18;9.40;16.10
2409;DHT22;8463;48.094;7.970;2023-02-21T19:15:44;9.40;16.60
2409;DHT22;8463;48.094;7.970;2023-02-21T19:18:10;9.30;17.10
2409;DHT22;8463;48.094;7.970;2023-02-21T19:20:38;9.40;17.50
2409;DHT22;8463;48.094;7.970;2023-02-21T19:23:05;9.30;18.00
2409;DHT22;8463;48.094;7.970;2023-02-21T19:25:31;9.30;17.40
2409;DHT22;8463;48.094;7.970;2023-02-21T19:27:58;9.30;17.40
2409;DHT22;8463;48.094;7.970;2023-02-21T19:30:31;9.20;17.60
2409;DHT22;8463;48.094;7.970;2023-02-21T19:33:04;9.20;17.40
2409;DHT22;8463;48.094;7.970;2023-02-21T19:35:32;9.20;17.80
2409;DHT22;8463;48.094;7.970;2023-02-21T19:38:04;9.10;17.70
2409;DHT22;8463;48.094;7.970;2023-02-21T19:40:30;9.10;18.30
2409;DHT22;8463;48.094;7.970;2023-02-21T19:42:58;9.00;18.20
2409;DHT22;8463;48.094;7.970;2023-02-21T19:45:24;8.90;18.30
2409;DHT22;8463;48.094;7.970;2023-02-21T19:47:50;8.90;18.70
2409;DHT22;8463;48.094;7.970;2023-02-21T19:50:15;8.80;18.50
2409;DHT22;8463;48.094;7.970;2023-02-21T19:52:41;8.80;18.80